Kirksville, MO

4:52 PM CDT on September 03, 2015 (GMT -0500)
Kirksville Regional | | Change Station
CLOSE
Current Station
Airport
Location: Kirksville,
Elevation: 965 ft
Nearby Weather Stations

Elev 965 ft 40.10 °N, 92.55 °W | Updated 57 minutes ago

Clear
Clear
91 °F
Feels Like 94 °F
N
10
Wind Variable Wind from SSW

Today
High -- | Low -- °F
--% Chance of Precip.
Yesterday
High -- | Low -- °F
Precip. -- in
6:39 AM 7:38 PM
Waning Gibbous, 66% visible
Pressure 29.91 in
Visibility 10.0 miles
Clouds Clear
Heat Index 94 °F
Dew Point 67 °F
Humidity 45%
Rainfall 0.00 in
Snow Depth Not available.
UV 5 out of 12
Pollen 10.60 out of 12
Air Quality Not available.
Flu Activity Not available.
METAR KIRK 032055Z AUTO 21009KT 10SM CLR 33/19 A2993 RMK AO2 SLP126 T03280194 58013
Pressure 29.91 in
Visibility 10.0 miles
Clouds Clear
Heat Index 94 °F
Dew Point 67 °F
Humidity 45%
Rainfall 0.00 in
Snow Depth Not available.
UV 5 out of 12
Pollen 10.60 out of 12
Air Quality Not available.
Flu Activity Not available.
METAR KIRK 032055Z AUTO 21009KT 10SM CLR 33/19 A2993 RMK AO2 SLP126 T03280194 58013

10-Day Weather Forecast

×

Almanac

Astronomy

Sep. 03, 2015 Rise Set
Actual Time
Civil Twilight
Nautical Twilight
Astronomical Twilight
Moon
Length of Visible Light
Length of Day
Tomorrow will be .
, % of the Moon is Illuminated

Today's Extremes

State Highs State Lows

Community

WunderPhotos

Upload Photos

1,852,045 photos uploaded!

WunderBlogs® & News

Nearby

Air Quality

  Air Quality AQ Index Pollutant
Not available.

Snow Depth

Station Depth Elevation

Earthquake Activity

City Distance Mag. Time & Date
Minimum magnitude displayed is 2.5.

Coastal Water Temperatures

Place Temperature

Stations

Nearby Weather Stations

Station Location Temp. Windchill Dew Point Humidity Wind Precip. Elev Updated Type